Anvik, Alaska
Current Conditions -  °F | °C
As of 5:36 AM on Thursday 27 Nov 2014 (Local Time) from PANV Reporting Station
Overcast Overcast  
Wind Chill: -3°   Ceiling: 1400
Heat Index: 10°   Visibility: 10mi
Dew Point:   Wind: 10mph
Humidity: 79%   Direction: 30°NNE
Pressure: 30.2"   Gusts: NA
Location:  62.66°N, 160.21°W
Report Text: PANV 271436Z AUTO 03009KT 10SM OVC014 M12/M15 A3020 RMK AO1
Loading
Personal Weather Stations






























Interactive Weather Map New forecast layout! Learn more

10-Day Weather Forecast

Advertisements
Track Severe Weather on mobile